sensor_id;sensor_type;location;lat;lon;timestamp;pressure;altitude;pressure_sealevel;temperature;humidity
56668;BME280;42542;48.360;10.958;2023-05-12T00:02:14;95801.34;;;10.25;100.00
56668;BME280;42542;48.360;10.958;2023-05-12T00:05:17;95808.53;;;10.25;100.00
56668;BME280;42542;48.360;10.958;2023-05-12T00:08:18;95802.34;;;10.24;100.00
56668;BME280;42542;48.360;10.958;2023-05-12T00:11:20;95801.53;;;10.24;100.00
56668;BME280;42542;48.360;10.958;2023-05-12T00:14:23;95798.00;;;10.23;100.00
56668;BME280;42542;48.360;10.958;2023-05-12T00:17:26;95794.53;;;10.23;100.00
56668;BME280;42542;48.360;10.958;2023-05-12T00:20:29;95792.03;;;10.21;100.00
56668;BME280;42542;48.360;10.958;2023-05-12T00:23:34;95796.69;;;10.19;100.00
56668;BME280;42542;48.360;10.958;2023-05-12T00:26:39;95794.31;;;10.16;100.00
56668;BME280;42542;48.360;10.958;2023-05-12T00:29:41;95792.84;;;10.13;100.00
56668;BME280;42542;48.360;10.958;2023-05-12T00:32:49;95798.03;;;10.15;100.00
56668;BME280;42542;48.360;10.958;2023-05-12T00:35:52;95782.50;;;10.10;100.00
56668;BME280;42542;48.360;10.958;2023-05-12T00:38:53;95781.50;;;10.11;100.00
56668;BME280;42542;48.360;10.958;2023-05-12T00:41:57;95784.31;;;10.10;100.00
56668;BME280;42542;48.360;10.958;2023-05-12T00:44:59;95783.50;;;10.09;100.00
56668;BME280;42542;48.360;10.958;2023-05-12T00:48:03;95775.84;;;10.06;100.00
56668;BME280;42542;48.360;10.958;2023-05-12T00:51:05;95779.97;;;10.09;100.00
56668;BME280;42542;48.360;10.958;2023-05-12T00:54:08;95774.16;;;10.05;100.00
56668;BME280;42542;48.360;10.958;2023-05-12T00:57:10;95775.16;;;10.04;100.00
56668;BME280;42542;48.360;10.958;2023-05-12T01:00:13;95781.50;;;10.03;100.00
56668;BME280;42542;48.360;10.958;2023-05-12T01:03:18;95779.00;;;10.02;100.00
56668;BME280;42542;48.360;10.958;2023-05-12T01:06:27;95782.69;;;10.01;100.00
56668;BME280;42542;48.360;10.958;2023-05-12T01:09:31;95781.03;;;10.00;100.00
56668;BME280;42542;48.360;10.958;2023-05-12T01:12:33;95771.66;;;9.96;100.00
56668;BME280;42542;48.360;10.958;2023-05-12T01:15:39;95770.66;;;9.97;100.00
56668;BME280;42542;48.360;10.958;2023-05-12T01:18:45;95763.66;;;9.96;100.00
56668;BME280;42542;48.360;10.958;2023-05-12T01:21:52;95774.16;;;9.97;100.00
56668;BME280;42542;48.360;10.958;2023-05-12T01:25:00;95771.50;;;9.97;100.00
56668;BME280;42542;48.360;10.958;2023-05-12T01:28:05;95779.66;;;9.96;100.00
56668;BME280;42542;48.360;10.958;2023-05-12T01:31:09;95767.00;;;9.98;100.00
56668;BME280;42542;48.360;10.958;2023-05-12T01:34:16;95778.50;;;9.98;100.00
56668;BME280;42542;48.360;10.958;2023-05-12T01:37:24;95776.69;;;9.99;100.00
56668;BME280;42542;48.360;10.958;2023-05-12T01:40:28;95775.69;;;10.00;100.00
56668;BME280;42542;48.360;10.958;2023-05-12T01:43:31;95774.00;;;9.99;100.00
56668;BME280;42542;48.360;10.958;2023-05-12T01:46:33;95774.16;;;9.97;100.00
56668;BME280;42542;48.360;10.958;2023-05-12T01:49:36;95773.16;;;9.98;100.00
56668;BME280;42542;48.360;10.958;2023-05-12T01:52:42;95768.81;;;9.97;100.00
56668;BME280;42542;48.360;10.958;2023-05-12T01:55:47;95776.84;;;9.97;100.00
56668;BME280;42542;48.360;10.958;2023-05-12T01:58:50;95773.69;;;9.94;100.00
56668;BME280;42542;48.360;10.958;2023-05-12T02:01:52;95777.84;;;9.96;100.00
56668;BME280;42542;48.360;10.958;2023-05-12T02:05:02;95776.34;;;9.94;100.00
56668;BME280;42542;48.360;10.958;2023-05-12T02:08:04;95774.69;;;9.93;100.00
56668;BME280;42542;48.360;10.958;2023-05-12T02:11:07;95777.53;;;9.91;100.00
56668;BME280;42542;48.360;10.958;2023-05-12T02:14:10;95788.69;;;9.95;100.00
56668;BME280;42542;48.360;10.958;2023-05-12T02:17:13;95787.03;;;9.94;100.00
56668;BME280;42542;48.360;10.958;2023-05-12T02:20:15;95782.19;;;9.89;100.00
56668;BME280;42542;48.360;10.958;2023-05-12T02:23:19;95780.34;;;9.90;100.00
56668;BME280;42542;48.360;10.958;2023-05-12T02:26:22;95778.69;;;9.89;100.00
56668;BME280;42542;48.360;10.958;2023-05-12T02:29:25;95770.34;;;9.84;100.00
56668;BME280;42542;48.360;10.958;2023-05-12T02:32:28;95782.34;;;9.88;100.00
56668;BME280;42542;48.360;10.958;2023-05-12T02:35:30;95772.69;;;9.87;100.00
56668;BME280;42542;48.360;10.958;2023-05-12T02:38:33;95772.03;;;9.85;100.00
56668;BME280;42542;48.360;10.958;2023-05-12T02:41:35;95776.38;;;9.86;100.00
56668;BME280;42542;48.360;10.958;2023-05-12T02:44:37;95776.38;;;9.86;100.00
56668;BME280;42542;48.360;10.958;2023-05-12T02:47:38;95770.19;;;9.85;100.00
56668;BME280;42542;48.360;10.958;2023-05-12T02:50:41;95772.03;;;9.85;100.00
56668;BME280;42542;48.360;10.958;2023-05-12T02:53:43;95774.03;;;9.83;100.00
56668;BME280;42542;48.360;10.958;2023-05-12T02:56:45;95766.00;;;9.83;100.00
56668;BME280;42542;48.360;10.958;2023-05-12T02:59:47;95765.16;;;9.82;100.00
56668;BME280;42542;48.360;10.958;2023-05-12T03:02:50;95767.84;;;9.82;100.00
56668;BME280;42542;48.360;10.958;2023-05-12T03:05:52;95772.34;;;9.82;100.00
56668;BME280;42542;48.360;10.958;2023-05-12T03:08:54;95763.69;;;9.79;100.00
56668;BME280;42542;48.360;10.958;2023-05-12T03:11:56;95763.84;;;9.78;100.00
56668;BME280;42542;48.360;10.958;2023-05-12T03:14:58;95765.34;;;9.80;100.00
56668;BME280;42542;48.360;10.958;2023-05-12T03:18:00;95764.84;;;9.77;100.00
56668;BME280;42542;48.360;10.958;2023-05-12T03:21:03;95772.34;;;9.82;100.00
56668;BME280;42542;48.360;10.958;2023-05-12T03:24:06;95768.84;;;9.81;100.00
56668;BME280;42542;48.360;10.958;2023-05-12T03:27:08;95762.66;;;9.80;100.00
56668;BME280;42542;48.360;10.958;2023-05-12T03:30:11;95768.69;;;9.83;100.00
56668;BME280;42542;48.360;10.958;2023-05-12T03:33:14;95768.84;;;9.81;100.00
56668;BME280;42542;48.360;10.958;2023-05-12T03:36:16;95771.19;;;9.84;100.00
56668;BME280;42542;48.360;10.958;2023-05-12T03:39:19;95764.00;;;9.85;100.00
56668;BME280;42542;48.360;10.958;2023-05-12T03:42:23;95767.53;;;9.85;100.00
56668;BME280;42542;48.360;10.958;2023-05-12T03:45:25;95762.81;;;9.87;100.00
56668;BME280;42542;48.360;10.958;2023-05-12T03:48:27;95761.34;;;9.85;100.00
56668;BME280;42542;48.360;10.958;2023-05-12T03:51:30;95769.34;;;9.85;100.00
56668;BME280;42542;48.360;10.958;2023-05-12T03:54:31;95766.53;;;9.86;100.00
56668;BME280;42542;48.360;10.958;2023-05-12T03:57:33;95764.84;;;9.85;100.00
56668;BME280;42542;48.360;10.958;2023-05-12T04:00:37;95773.50;;;9.87;100.00
56668;BME280;42542;48.360;10.958;2023-05-12T04:03:40;95759.84;;;9.82;100.00
56668;BME280;42542;48.360;10.958;2023-05-12T04:06:44;95763.66;;;9.88;100.00
56668;BME280;42542;48.360;10.958;2023-05-12T04:09:46;95773.34;;;9.89;100.00
56668;BME280;42542;48.360;10.958;2023-05-12T04:12:48;95768.16;;;9.87;100.00
56668;BME280;42542;48.360;10.958;2023-05-12T04:15:54;95766.00;;;9.91;100.00
56668;BME280;42542;48.360;10.958;2023-05-12T04:18:57;95765.84;;;9.92;100.00
56668;BME280;42542;48.360;10.958;2023-05-12T04:21:58;95764.66;;;9.95;100.00
56668;BME280;42542;48.360;10.958;2023-05-12T04:25:00;95773.34;;;9.97;100.00
56668;BME280;42542;48.360;10.958;2023-05-12T04:28:02;95776.00;;;9.97;100.00
56668;BME280;42542;48.360;10.958;2023-05-12T04:31:05;95768.81;;;9.97;100.00
56668;BME280;42542;48.360;10.958;2023-05-12T04:34:09;95783.50;;;10.01;100.00
56668;BME280;42542;48.360;10.958;2023-05-12T04:37:11;95794.19;;;10.01;100.00
56668;BME280;42542;48.360;10.958;2023-05-12T04:40:14;95788.19;;;9.99;100.00
56668;BME280;42542;48.360;10.958;2023-05-12T04:43:19;95778.34;;;10.00;100.00
56668;BME280;42542;48.360;10.958;2023-05-12T04:46:24;95781.50;;;10.03;100.00
56668;BME280;42542;48.360;10.958;2023-05-12T04:49:28;95787.19;;;10.08;100.00
56668;BME280;42542;48.360;10.958;2023-05-12T04:52:30;95787.19;;;10.08;100.00
56668;BME280;42542;48.360;10.958;2023-05-12T04:55:32;95794.84;;;10.11;100.00
56668;BME280;42542;48.360;10.958;2023-05-12T04:58:34;95787.19;;;10.08;100.00
56668;BME280;42542;48.360;10.958;2023-05-12T05:01:36;95811.53;;;10.13;100.00
56668;BME280;42542;48.360;10.958;2023-05-12T05:04:38;95804.19;;;10.15;100.00
56668;BME280;42542;48.360;10.958;2023-05-12T05:07:40;95799.53;;;10.17;100.00
56668;BME280;42542;48.360;10.958;2023-05-12T05:10:42;95813.03;;;10.24;100.00
56668;BME280;42542;48.360;10.958;2023-05-12T05:13:45;95807.53;;;10.26;100.00
56668;BME280;42542;48.360;10.958;2023-05-12T05:16:46;95803.69;;;10.28;100.00
56668;BME280;42542;48.360;10.958;2023-05-12T05:19:50;95799.38;;;10.27;100.00
56668;BME280;42542;48.360;10.958;2023-05-12T05:23:02;95805.38;;;10.29;100.00
56668;BME280;42542;48.360;10.958;2023-05-12T05:26:05;95809.34;;;10.33;100.00
56668;BME280;42542;48.360;10.958;2023-05-12T05:29:07;95807.53;;;10.34;100.00
56668;BME280;42542;48.360;10.958;2023-05-12T05:32:11;95808.19;;;10.36;100.00
56668;BME280;42542;48.360;10.958;2023-05-12T05:35:13;95814.69;;;10.41;100.00
56668;BME280;42542;48.360;10.958;2023-05-12T05:38:20;95816.00;;;10.45;100.00
56668;BME280;42542;48.360;10.958;2023-05-12T05:41:22;95812.66;;;10.51;100.00
56668;BME280;42542;48.360;10.958;2023-05-12T05:44:24;95817.50;;;10.56;100.00
56668;BME280;42542;48.360;10.958;2023-05-12T05:47:27;95813.47;;;10.60;100.00
56668;BME280;42542;48.360;10.958;2023-05-12T05:50:30;95814.81;;;10.64;100.00
56668;BME280;42542;48.360;10.958;2023-05-12T05:53:32;95816.78;;;10.70;100.00
56668;BME280;42542;48.360;10.958;2023-05-12T05:56:34;95810.25;;;10.73;100.00
56668;BME280;42542;48.360;10.958;2023-05-12T05:59:36;95822.78;;;10.80;100.00
56668;BME280;42542;48.360;10.958;2023-05-12T06:02:40;95818.56;;;10.86;100.00
56668;BME280;42542;48.360;10.958;2023-05-12T06:05:44;95820.53;;;10.92;100.00
56668;BME280;42542;48.360;10.958;2023-05-12T06:08:47;95816.50;;;10.96;100.00
56668;BME280;42542;48.360;10.958;2023-05-12T06:11:48;95822.34;;;11.00;100.00
56668;BME280;42542;48.360;10.958;2023-05-12T06:14:50;95822.66;;;11.05;100.00
56668;BME280;42542;48.360;10.958;2023-05-12T06:17:52;95823.16;;;11.08;100.00
56668;BME280;42542;48.360;10.958;2023-05-12T06:20:55;95824.28;;;11.14;100.00
56668;BME280;42542;48.360;10.958;2023-05-12T06:23:56;95829.25;;;11.17;100.00
56668;BME280;42542;48.360;10.958;2023-05-12T06:26:58;95832.44;;;11.20;100.00
56668;BME280;42542;48.360;10.958;2023-05-12T06:30:00;95824.72;;;11.25;100.00
56668;BME280;42542;48.360;10.958;2023-05-12T06:33:03;95817.34;;;11.27;100.00
56668;BME280;42542;48.360;10.958;2023-05-12T06:36:05;95825.16;;;11.37;100.00
56668;BME280;42542;48.360;10.958;2023-05-12T06:39:08;95832.47;;;11.43;100.00
56668;BME280;42542;48.360;10.958;2023-05-12T06:42:10;95823.75;;;11.49;100.00
56668;BME280;42542;48.360;10.958;2023-05-12T06:45:15;95819.50;;;11.55;100.00
56668;BME280;42542;48.360;10.958;2023-05-12T06:48:16;95825.16;;;11.60;100.00
56668;BME280;42542;48.360;10.958;2023-05-12T06:51:18;95825.47;;;11.65;100.00
56668;BME280;42542;48.360;10.958;2023-05-12T06:54:20;95831.13;;;11.70;100.00
56668;BME280;42542;48.360;10.958;2023-05-12T06:57:22;95817.56;;;11.71;100.00
56668;BME280;42542;48.360;10.958;2023-05-12T07:00:24;95827.03;;;11.82;100.00
56668;BME280;42542;48.360;10.958;2023-05-12T07:03:30;95821.06;;;11.80;100.00
56668;BME280;42542;48.360;10.958;2023-05-12T07:06:32;95833.34;;;11.89;100.00
56668;BME280;42542;48.360;10.958;2023-05-12T07:09:34;95834.19;;;11.90;100.00
56668;BME280;42542;48.360;10.958;2023-05-12T07:12:37;95836.53;;;11.93;100.00
56668;BME280;42542;48.360;10.958;2023-05-12T07:15:40;95831.44;;;11.98;100.00
56668;BME280;42542;48.360;10.958;2023-05-12T07:18:42;95836.63;;;11.99;99.87
56668;BME280;42542;48.360;10.958;2023-05-12T07:21:47;95832.09;;;12.00;99.05
56668;BME280;42542;48.360;10.958;2023-05-12T07:24:57;95836.91;;;12.04;99.86
56668;BME280;42542;48.360;10.958;2023-05-12T07:27:59;95829.19;;;12.09;100.00
56668;BME280;42542;48.360;10.958;2023-05-12T07:31:05;95825.28;;;12.12;100.00
56668;BME280;42542;48.360;10.958;2023-05-12T07:34:07;95835.66;;;12.15;99.79
56668;BME280;42542;48.360;10.958;2023-05-12T07:37:11;95834.28;;;12.19;99.43
56668;BME280;42542;48.360;10.958;2023-05-12T07:40:12;95826.53;;;12.24;99.69
56668;BME280;42542;48.360;10.958;2023-05-12T07:43:16;95820.34;;;12.24;99.75
56668;BME280;42542;48.360;10.958;2023-05-12T07:46:18;95828.31;;;12.32;99.11
56668;BME280;42542;48.360;10.958;2023-05-12T07:49:19;95832.09;;;12.37;98.69
56668;BME280;42542;48.360;10.958;2023-05-12T07:52:23;95834.06;;;12.43;98.16
56668;BME280;42542;48.360;10.958;2023-05-12T07:55:26;95822.31;;;12.44;97.01
56668;BME280;42542;48.360;10.958;2023-05-12T07:58:27;95829.25;;;12.53;97.76
56668;BME280;42542;48.360;10.958;2023-05-12T08:01:29;95825.03;;;12.59;96.70
56668;BME280;42542;48.360;10.958;2023-05-12T08:04:32;95831.00;;;12.61;96.29
56668;BME280;42542;48.360;10.958;2023-05-12T08:07:36;95828.81;;;12.65;95.91
56668;BME280;42542;48.360;10.958;2023-05-12T08:10:38;95834.25;;;12.71;95.48
56668;BME280;42542;48.360;10.958;2023-05-12T08:13:40;95829.16;;;12.76;95.59
56668;BME280;42542;48.360;10.958;2023-05-12T08:16:42;95829.47;;;12.81;95.31
56668;BME280;42542;48.360;10.958;2023-05-12T08:19:46;95827.06;;;12.86;94.61
56668;BME280;42542;48.360;10.958;2023-05-12T08:22:49;95827.81;;;12.95;95.74
56668;BME280;42542;48.360;10.958;2023-05-12T08:25:51;95817.69;;;12.97;94.41
56668;BME280;42542;48.360;10.958;2023-05-12T08:28:53;95828.53;;;13.04;94.96
56668;BME280;42542;48.360;10.958;2023-05-12T08:31:56;95823.25;;;13.10;94.24
56668;BME280;42542;48.360;10.958;2023-05-12T08:34:59;95832.78;;;13.13;94.36
56668;BME280;42542;48.360;10.958;2023-05-12T08:38:01;95838.25;;;13.19;94.67
56668;BME280;42542;48.360;10.958;2023-05-12T08:41:15;95832.50;;;13.22;93.92
56668;BME280;42542;48.360;10.958;2023-05-12T08:44:19;95824.66;;;13.21;92.58
56668;BME280;42542;48.360;10.958;2023-05-12T08:47:22;95831.56;;;13.30;92.75
56668;BME280;42542;48.360;10.958;2023-05-12T08:50:27;95823.72;;;13.28;91.09
56668;BME280;42542;48.360;10.958;2023-05-12T08:53:32;95828.13;;;13.36;91.44
56668;BME280;42542;48.360;10.958;2023-05-12T08:56:35;95832.75;;;13.42;92.11
56668;BME280;42542;48.360;10.958;2023-05-12T08:59:42;95838.38;;;13.47;91.39
56668;BME280;42542;48.360;10.958;2023-05-12T09:02:47;95841.53;;;13.51;90.13
56668;BME280;42542;48.360;10.958;2023-05-12T09:05:58;95831.22;;;13.54;90.73
56668;BME280;42542;48.360;10.958;2023-05-12T09:09:02;95835.78;;;13.54;89.10
56668;BME280;42542;48.360;10.958;2023-05-12T09:12:06;95840.94;;;13.55;87.94
56668;BME280;42542;48.360;10.958;2023-05-12T09:15:17;95837.91;;;13.58;88.73
56668;BME280;42542;48.360;10.958;2023-05-12T09:18:21;95843.25;;;13.58;90.26
56668;BME280;42542;48.360;10.958;2023-05-12T09:21:29;95840.75;;;13.57;90.73
56668;BME280;42542;48.360;10.958;2023-05-12T09:24:38;95845.88;;;13.52;89.91
56668;BME280;42542;48.360;10.958;2023-05-12T09:27:45;95843.88;;;13.39;89.00
56668;BME280;42542;48.360;10.958;2023-05-12T09:30:49;95841.31;;;13.31;90.22
56668;BME280;42542;48.360;10.958;2023-05-12T09:33:51;95846.94;;;13.36;90.38
56668;BME280;42542;48.360;10.958;2023-05-12T09:36:58;95853.50;;;13.34;91.26
56668;BME280;42542;48.360;10.958;2023-05-12T09:40:05;95846.84;;;13.29;90.84
56668;BME280;42542;48.360;10.958;2023-05-12T09:43:08;95855.91;;;13.28;91.04
56668;BME280;42542;48.360;10.958;2023-05-12T09:46:11;95863.13;;;13.28;91.79
56668;BME280;42542;48.360;10.958;2023-05-12T09:49:20;95861.03;;;13.23;90.78
56668;BME280;42542;48.360;10.958;2023-05-12T09:52:26;95853.91;;;13.16;90.58
56668;BME280;42542;48.360;10.958;2023-05-12T09:55:35;95859.16;;;13.09;91.13
56668;BME280;42542;48.360;10.958;2023-05-12T09:58:41;95843.97;;;13.02;91.63
56668;BME280;42542;48.360;10.958;2023-05-12T10:01:44;95858.50;;;13.07;92.17
56668;BME280;42542;48.360;10.958;2023-05-12T10:04:53;95860.53;;;13.05;92.24
56668;BME280;42542;48.360;10.958;2023-05-12T10:07:58;95858.59;;;12.99;91.91
56668;BME280;42542;48.360;10.958;2023-05-12T10:11:01;95856.91;;;12.98;92.48
56668;BME280;42542;48.360;10.958;2023-05-12T10:14:06;95852.22;;;13.00;93.28
56668;BME280;42542;48.360;10.958;2023-05-12T10:17:10;95858.22;;;13.02;93.64
56668;BME280;42542;48.360;10.958;2023-05-12T10:20:14;95854.91;;;13.00;93.75
56668;BME280;42542;48.360;10.958;2023-05-12T10:23:17;95861.75;;;13.03;92.90
56668;BME280;42542;48.360;10.958;2023-05-12T10:26:20;95864.44;;;13.03;92.28
56668;BME280;42542;48.360;10.958;2023-05-12T10:29:22;95862.38;;;13.05;92.86
56668;BME280;42542;48.360;10.958;2023-05-12T10:32:31;95863.69;;;13.09;92.67
56668;BME280;42542;48.360;10.958;2023-05-12T10:35:34;95857.94;;;13.12;92.64
56668;BME280;42542;48.360;10.958;2023-05-12T10:38:36;95864.63;;;13.16;92.31
56668;BME280;42542;48.360;10.958;2023-05-12T10:41:40;95860.38;;;13.21;92.58
56668;BME280;42542;48.360;10.958;2023-05-12T10:44:49;95864.81;;;13.29;92.54
56668;BME280;42542;48.360;10.958;2023-05-12T10:48:03;95861.75;;;13.32;91.53
56668;BME280;42542;48.360;10.958;2023-05-12T10:51:08;95863.88;;;13.37;91.86
56668;BME280;42542;48.360;10.958;2023-05-12T10:54:18;95862.47;;;13.41;90.85
56668;BME280;42542;48.360;10.958;2023-05-12T10:57:20;95862.09;;;13.44;90.35
56668;BME280;42542;48.360;10.958;2023-05-12T11:00:25;95865.03;;;13.49;89.73
56668;BME280;42542;48.360;10.958;2023-05-12T11:03:28;95863.19;;;13.49;88.99
56668;BME280;42542;48.360;10.958;2023-05-12T11:06:31;95862.19;;;13.50;87.67
56668;BME280;42542;48.360;10.958;2023-05-12T11:09:38;95867.19;;;13.53;87.66
56668;BME280;42542;48.360;10.958;2023-05-12T11:12:53;95865.50;;;13.52;86.21
56668;BME280;42542;48.360;10.958;2023-05-12T11:15:56;95875.03;;;13.55;87.22
56668;BME280;42542;48.360;10.958;2023-05-12T11:19:03;95869.09;;;13.59;86.84
56668;BME280;42542;48.360;10.958;2023-05-12T11:22:06;95881.94;;;13.64;85.35
56668;BME280;42542;48.360;10.958;2023-05-12T11:25:10;95874.16;;;13.69;84.96
56668;BME280;42542;48.360;10.958;2023-05-12T11:28:12;95873.22;;;13.77;84.63
56668;BME280;42542;48.360;10.958;2023-05-12T11:31:19;95874.50;;;13.81;83.05
56668;BME280;42542;48.360;10.958;2023-05-12T11:34:23;95878.28;;;13.86;83.68
56668;BME280;42542;48.360;10.958;2023-05-12T11:37:25;95881.03;;;13.93;83.84
56668;BME280;42542;48.360;10.958;2023-05-12T11:40:27;95878.34;;;13.93;82.14
56668;BME280;42542;48.360;10.958;2023-05-12T11:43:29;95871.97;;;13.94;82.25
56668;BME280;42542;48.360;10.958;2023-05-12T11:46:31;95873.22;;;13.98;82.16
56668;BME280;42542;48.360;10.958;2023-05-12T11:49:33;95877.88;;;14.04;83.50
56668;BME280;42542;48.360;10.958;2023-05-12T11:52:46;95882.06;;;14.13;83.16
56668;BME280;42542;48.360;10.958;2023-05-12T11:55:48;95884.19;;;14.18;81.82
56668;BME280;42542;48.360;10.958;2023-05-12T11:58:54;95883.59;;;14.22;81.63
56668;BME280;42542;48.360;10.958;2023-05-12T12:01:57;95880.16;;;14.28;81.72
56668;BME280;42542;48.360;10.958;2023-05-12T12:04:59;95884.38;;;14.37;82.43
56668;BME280;42542;48.360;10.958;2023-05-12T12:08:19;95887.59;;;14.48;82.79
56668;BME280;42542;48.360;10.958;2023-05-12T12:11:22;95879.59;;;14.54;82.58
56668;BME280;42542;48.360;10.958;2023-05-12T12:14:25;95882.75;;;14.64;83.26
56668;BME280;42542;48.360;10.958;2023-05-12T12:17:27;95880.75;;;14.73;82.67
56668;BME280;42542;48.360;10.958;2023-05-12T12:20:31;95887.22;;;14.78;80.97
56668;BME280;42542;48.360;10.958;2023-05-12T12:23:35;95898.00;;;14.85;81.28
56668;BME280;42542;48.360;10.958;2023-05-12T12:26:51;95893.66;;;14.56;78.85
56668;BME280;42542;48.360;10.958;2023-05-12T12:29:53;95897.66;;;14.39;79.01
56668;BME280;42542;48.360;10.958;2023-05-12T12:32:55;95893.13;;;14.39;81.30
56668;BME280;42542;48.360;10.958;2023-05-12T12:35:58;95894.13;;;14.38;82.57
56668;BME280;42542;48.360;10.958;2023-05-12T12:38:59;95893.16;;;14.46;82.72
56668;BME280;42542;48.360;10.958;2023-05-12T12:42:01;95890.28;;;14.48;82.51
56668;BME280;42542;48.360;10.958;2023-05-12T12:45:04;95896.88;;;14.45;82.07
56668;BME280;42542;48.360;10.958;2023-05-12T12:48:06;95893.72;;;14.41;81.59
56668;BME280;42542;48.360;10.958;2023-05-12T12:51:10;95895.59;;;14.41;81.85
56668;BME280;42542;48.360;10.958;2023-05-12T12:54:12;95896.41;;;14.41;82.54
56668;BME280;42542;48.360;10.958;2023-05-12T12:57:15;95896.81;;;14.38;81.91
56668;BME280;42542;48.360;10.958;2023-05-12T13:00:18;95897.16;;;14.35;82.76
56668;BME280;42542;48.360;10.958;2023-05-12T13:03:20;95899.25;;;14.33;83.68
56668;BME280;42542;48.360;10.958;2023-05-12T13:06:23;95900.63;;;14.29;83.52
56668;BME280;42542;48.360;10.958;2023-05-12T13:09:25;95896.28;;;14.28;84.43
56668;BME280;42542;48.360;10.958;2023-05-12T13:12:27;95904.09;;;14.23;83.73
56668;BME280;42542;48.360;10.958;2023-05-12T13:15:30;95902.53;;;14.14;83.61
56668;BME280;42542;48.360;10.958;2023-05-12T13:18:33;95904.53;;;14.05;84.30
56668;BME280;42542;48.360;10.958;2023-05-12T13:21:35;95900.94;;;13.98;85.18
56668;BME280;42542;48.360;10.958;2023-05-12T13:24:38;95909.81;;;13.99;85.30
56668;BME280;42542;48.360;10.958;2023-05-12T13:27:41;95909.41;;;13.95;85.16
56668;BME280;42542;48.360;10.958;2023-05-12T13:30:43;95904.84;;;13.96;85.49
56668;BME280;42542;48.360;10.958;2023-05-12T13:33:45;95906.31;;;13.98;86.27
56668;BME280;42542;48.360;10.958;2023-05-12T13:36:48;95905.09;;;14.01;86.25
56668;BME280;42542;48.360;10.958;2023-05-12T13:39:50;95910.28;;;14.02;86.26
56668;BME280;42542;48.360;10.958;2023-05-12T13:42:52;95906.38;;;14.05;86.10
56668;BME280;42542;48.360;10.958;2023-05-12T13:45:54;95909.06;;;14.05;85.95
56668;BME280;42542;48.360;10.958;2023-05-12T13:48:56;95909.47;;;14.02;85.24
56668;BME280;42542;48.360;10.958;2023-05-12T13:51:58;95906.13;;;14.00;84.97
56668;BME280;42542;48.360;10.958;2023-05-12T13:55:00;95907.44;;;14.04;85.61
56668;BME280;42542;48.360;10.958;2023-05-12T13:58:02;95909.91;;;14.05;85.60
56668;BME280;42542;48.360;10.958;2023-05-12T14:01:04;95908.88;;;14.06;85.98
56668;BME280;42542;48.360;10.958;2023-05-12T14:04:10;95908.03;;;14.06;85.94
56668;BME280;42542;48.360;10.958;2023-05-12T14:07:12;95913.16;;;14.01;85.42
56668;BME280;42542;48.360;10.958;2023-05-12T14:10:13;95910.41;;;13.94;84.91
56668;BME280;42542;48.360;10.958;2023-05-12T14:13:15;95915.59;;;13.96;84.82
56668;BME280;42542;48.360;10.958;2023-05-12T14:16:17;95916.97;;;13.92;84.91
56668;BME280;42542;48.360;10.958;2023-05-12T14:19:19;95907.47;;;13.89;85.31
56668;BME280;42542;48.360;10.958;2023-05-12T14:22:22;95912.19;;;13.87;85.34
56668;BME280;42542;48.360;10.958;2023-05-12T14:25:27;95918.94;;;13.83;85.26
56668;BME280;42542;48.360;10.958;2023-05-12T14:28:31;95908.78;;;13.79;85.40
56668;BME280;42542;48.360;10.958;2023-05-12T14:31:33;95911.47;;;13.79;85.82
56668;BME280;42542;48.360;10.958;2023-05-12T14:34:38;95910.44;;;13.80;85.80
56668;BME280;42542;48.360;10.958;2023-05-12T14:37:39;95917.69;;;13.79;85.60
56668;BME280;42542;48.360;10.958;2023-05-12T14:40:42;95910.63;;;13.78;85.06
56668;BME280;42542;48.360;10.958;2023-05-12T14:43:45;95918.50;;;13.80;85.91
56668;BME280;42542;48.360;10.958;2023-05-12T14:46:47;95912.13;;;13.81;86.28
56668;BME280;42542;48.360;10.958;2023-05-12T14:49:49;95906.16;;;13.85;86.12
56668;BME280;42542;48.360;10.958;2023-05-12T14:52:52;95912.00;;;13.89;85.88
56668;BME280;42542;48.360;10.958;2023-05-12T14:55:54;95914.31;;;13.92;86.04
56668;BME280;42542;48.360;10.958;2023-05-12T14:58:57;95914.19;;;14.00;86.01
56668;BME280;42542;48.360;10.958;2023-05-12T15:02:00;95912.16;;;14.02;85.66
56668;BME280;42542;48.360;10.958;2023-05-12T15:05:05;95906.78;;;14.02;85.72
56668;BME280;42542;48.360;10.958;2023-05-12T15:08:07;95915.50;;;14.04;86.60
56668;BME280;42542;48.360;10.958;2023-05-12T15:11:11;95914.84;;;14.02;86.10
56668;BME280;42542;48.360;10.958;2023-05-12T15:14:13;95914.84;;;14.02;86.09
56668;BME280;42542;48.360;10.958;2023-05-12T15:17:15;95913.94;;;13.95;85.90
56668;BME280;42542;48.360;10.958;2023-05-12T15:20:17;95917.38;;;13.89;86.11
56668;BME280;42542;48.360;10.958;2023-05-12T15:23:19;95921.09;;;13.88;85.68
56668;BME280;42542;48.360;10.958;2023-05-12T15:26:21;95920.00;;;13.82;85.42
56668;BME280;42542;48.360;10.958;2023-05-12T15:29:38;95920.19;;;13.81;85.50
56668;BME280;42542;48.360;10.958;2023-05-12T15:36:06;95919.00;;;13.68;86.07
56668;BME280;42542;48.360;10.958;2023-05-12T15:39:13;95919.56;;;13.64;85.88
56668;BME280;42542;48.360;10.958;2023-05-12T15:42:20;95925.31;;;13.61;85.76
56668;BME280;42542;48.360;10.958;2023-05-12T15:45:32;95925.22;;;13.54;85.60
56668;BME280;42542;48.360;10.958;2023-05-12T15:48:37;95919.41;;;13.51;85.27
56668;BME280;42542;48.360;10.958;2023-05-12T15:51:40;95926.34;;;13.45;85.31
56668;BME280;42542;48.360;10.958;2023-05-12T15:54:43;95923.00;;;13.43;85.34
56668;BME280;42542;48.360;10.958;2023-05-12T15:57:44;95923.19;;;13.42;85.32
56668;BME280;42542;48.360;10.958;2023-05-12T16:00:46;95919.22;;;13.38;85.90